Time;durP1;ratioP1;P1;durP2;ratioP2;P2;SDS_P1;SDS_P2;PMS_P1;PMS_P2;Temp;Humidity;BMP_temperature;BMP_pressure;BME280_temperature;BME280_humidity;BME280_pressure;Samples;Min_cycle;Max_cycle;Signal;HPM_P1;HPM_P2
2022/03/04 00:02:03;;;;;;;0.20;0.20;;;;;;;;;;5092185;28;20080;-62
2022/03/04 00:04:29;;;;;;;0.10;0.10;;;;;;;;;;5093100;28;20063;-61
2022/03/04 00:06:55;;;;;;;2.42;2.33;;;;;;;;;;5093495;28;20028;-61
2022/03/04 00:09:21;;;;;;;0.10;0.10;;;;;;;;;;5075710;28;20494;-60
2022/03/04 00:11:49;;;;;;;0.10;0.10;;;;;;;;;;5093547;28;20067;-61
2022/03/04 00:14:15;;;;;;;3.00;2.83;;;;;;;;;;5093479;28;20435;-63
2022/03/04 00:16:41;;;;;;;0.10;0.10;;;;;;;;;;5092977;28;20165;-61
2022/03/04 00:19:07;;;;;;;1.50;1.50;;;;;;;;;;5092608;28;20075;-62
2022/03/04 00:21:53;;;;;;;0.20;0.20;;;;;;;;;;5058453;28;20028;-61
2022/03/04 00:24:19;;;;;;;0.35;0.35;;;;;;;;;;5092891;28;20056;-64
2022/03/04 00:26:45;;;;;;;0.32;0.32;;;;;;;;;;5054027;28;20672;-61
2022/03/04 00:29:11;;;;;;;1.00;1.00;;;;;;;;;;5071537;28;20115;-61
2022/03/04 00:31:37;;;;;;;0.40;0.40;;;;;;;;;;5093638;28;20463;-63
2022/03/04 00:34:06;;;;;;;2.50;2.40;;;;;;;;;;5057949;28;20035;-62
2022/03/04 00:36:41;;;;;;;0.57;0.57;;;;;;;;;;5057758;28;20032;-60
2022/03/04 00:39:08;;;;;;;0.32;0.32;;;;;;;;;;5092926;28;20040;-61
2022/03/04 00:41:34;;;;;;;0.38;0.38;;;;;;;;;;5058520;28;20024;-61
2022/03/04 00:43:59;;;;;;;1.17;1.13;;;;;;;;;;5092943;28;20036;-62
2022/03/04 00:46:25;;;;;;;0.10;0.10;;;;;;;;;;5092557;28;20040;-62
2022/03/04 00:48:50;;;;;;;0.10;0.10;;;;;;;;;;5074845;28;20039;-62
2022/03/04 00:51:16;;;;;;;0.10;0.10;;;;;;;;;;5092766;28;20036;-60
2022/03/04 00:53:41;;;;;;;0.10;0.10;;;;;;;;;;5092680;28;20021;-62
2022/03/04 00:56:08;;;;;;;1.52;0.65;;;;;;;;;;5092997;28;20043;-61
2022/03/04 00:58:34;;;;;;;0.10;0.10;;;;;;;;;;5074099;28;20032;-62
2022/03/04 01:00:59;;;;;;;0.57;0.57;;;;;;;;;;5072938;28;20101;-61
2022/03/04 01:03:25;;;;;;;0.10;0.10;;;;;;;;;;5038108;28;20040;-61
2022/03/04 01:05:51;;;;;;;0.55;0.55;;;;;;;;;;5054112;28;20037;-61
2022/03/04 01:08:17;;;;;;;0.10;0.10;;;;;;;;;;5054787;28;20029;-60
2022/03/04 01:10:42;;;;;;;0.65;0.65;;;;;;;;;;5072971;28;20169;-60
2022/03/04 01:13:07;;;;;;;0.40;0.40;;;;;;;;;;5073006;28;20561;-60
2022/03/04 01:15:33;;;;;;;0.10;0.10;;;;;;;;;;5072579;28;20032;-61
2022/03/04 01:17:59;;;;;;;0.10;0.10;;;;;;;;;;5054673;28;20047;-60
2022/03/04 01:20:24;;;;;;;2.30;2.20;;;;;;;;;;5073138;28;20043;-61
2022/03/04 01:22:50;;;;;;;0.10;0.10;;;;;;;;;;5055238;28;20040;-61
2022/03/04 01:25:15;;;;;;;0.10;0.10;;;;;;;;;;5073039;28;20040;-60
2022/03/04 01:27:41;;;;;;;0.10;0.10;;;;;;;;;;5072402;28;20028;-60
2022/03/04 01:30:08;;;;;;;0.10;0.10;;;;;;;;;;5072809;28;20039;-61
2022/03/04 01:32:33;;;;;;;0.10;0.10;;;;;;;;;;5038119;28;20044;-61
2022/03/04 01:34:59;;;;;;;0.10;0.10;;;;;;;;;;5072594;28;20035;-60
2022/03/04 01:37:24;;;;;;;0.20;0.20;;;;;;;;;;5071879;28;20090;-60
2022/03/04 01:39:50;;;;;;;0.10;0.10;;;;;;;;;;5071720;28;20047;-61
2022/03/04 01:42:16;;;;;;;0.10;0.10;;;;;;;;;;5072039;28;20033;-61
2022/03/04 01:44:41;;;;;;;0.10;0.10;;;;;;;;;;5071634;28;20395;-60
2022/03/04 01:47:07;;;;;;;0.73;0.73;;;;;;;;;;5053639;28;20024;-60
2022/03/04 01:49:33;;;;;;;0.10;0.10;;;;;;;;;;5071835;28;20473;-60
2022/03/04 01:51:59;;;;;;;1.52;1.42;;;;;;;;;;5053718;28;20037;-61
2022/03/04 01:54:25;;;;;;;1.55;1.55;;;;;;;;;;5036956;28;20384;-61
2022/03/04 01:56:50;;;;;;;0.10;0.10;;;;;;;;;;5053755;28;20033;-61
2022/03/04 01:59:16;;;;;;;0.73;0.73;;;;;;;;;;5053530;28;20041;-60
2022/03/04 02:01:42;;;;;;;0.70;0.68;;;;;;;;;;5036873;28;20032;-61
2022/03/04 02:04:08;;;;;;;0.63;0.63;;;;;;;;;;5037103;28;20056;-60
2022/03/04 02:06:33;;;;;;;0.20;0.20;;;;;;;;;;5071598;28;20032;-60
2022/03/04 02:08:59;;;;;;;0.10;0.10;;;;;;;;;;5053732;28;20043;-60
2022/03/04 02:11:24;;;;;;;0.10;0.10;;;;;;;;;;5071463;28;20534;-60
2022/03/04 02:13:50;;;;;;;0.57;0.57;;;;;;;;;;5071493;28;20032;-61
2022/03/04 02:16:24;;;;;;;0.10;0.10;;;;;;;;;;5071398;28;20035;-59
2022/03/04 02:18:50;;;;;;;0.10;0.10;;;;;;;;;;5036847;28;20032;-61
2022/03/04 02:21:16;;;;;;;0.47;0.45;;;;;;;;;;5071709;28;20031;-61
2022/03/04 02:23:42;;;;;;;1.92;1.85;;;;;;;;;;5053246;28;20127;-62
2022/03/04 02:26:07;;;;;;;1.50;1.40;;;;;;;;;;5071274;28;20123;-62
2022/03/04 02:28:33;;;;;;;0.10;0.10;;;;;;;;;;5071257;28;20048;-60
2022/03/04 02:30:58;;;;;;;0.20;0.20;;;;;;;;;;5071304;28;20115;-60
2022/03/04 02:33:24;;;;;;;5.38;5.18;;;;;;;;;;5053445;28;20115;-60
2022/03/04 02:35:49;;;;;;;0.10;0.10;;;;;;;;;;5053633;28;20037;-61
2022/03/04 02:38:15;;;;;;;0.10;0.10;;;;;;;;;;5071289;28;20369;-60
2022/03/04 02:40:41;;;;;;;0.17;0.17;;;;;;;;;;5071424;28;20021;-61
2022/03/04 02:43:06;;;;;;;0.00;0.00;;;;;;;;;;5053314;28;20033;-60
2022/03/04 02:45:32;;;;;;;0.30;0.30;;;;;;;;;;5071405;28;20029;-60
2022/03/04 02:47:58;;;;;;;0.10;0.10;;;;;;;;;;5036469;28;20043;-59
2022/03/04 02:50:24;;;;;;;0.10;0.10;;;;;;;;;;5071553;28;20037;-60
2022/03/04 02:52:49;;;;;;;0.10;0.10;;;;;;;;;;5071120;28;20553;-60
2022/03/04 02:55:15;;;;;;;0.20;0.20;;;;;;;;;;5071189;28;20028;-60
2022/03/04 02:57:45;;;;;;;1.48;1.38;;;;;;;;;;5070607;28;20047;-60
2022/03/04 03:00:11;;;;;;;0.10;0.10;;;;;;;;;;5036640;28;20033;-61
2022/03/04 03:02:37;;;;;;;0.50;0.50;;;;;;;;;;5036621;28;20045;-61
2022/03/04 03:05:03;;;;;;;0.10;0.10;;;;;;;;;;5071289;28;20021;-61
2022/03/04 03:07:29;;;;;;;0.10;0.10;;;;;;;;;;5037103;28;20391;-60
2022/03/04 03:09:55;;;;;;;2.00;1.90;;;;;;;;;;5052480;28;20039;-61
2022/03/04 03:12:20;;;;;;;0.10;0.10;;;;;;;;;;5071104;28;20020;-61
2022/03/04 03:14:47;;;;;;;1.55;1.45;;;;;;;;;;5070754;28;20036;-61
2022/03/04 03:17:12;;;;;;;0.10;0.10;;;;;;;;;;5036383;28;20090;-60
2022/03/04 03:19:38;;;;;;;0.95;0.45;;;;;;;;;;5053379;28;20040;-60
2022/03/04 03:22:03;;;;;;;0.10;0.10;;;;;;;;;;5070629;28;20120;-61
2022/03/04 03:24:29;;;;;;;0.10;0.10;;;;;;;;;;5071281;28;20032;-60
2022/03/04 03:26:55;;;;;;;0.10;0.10;;;;;;;;;;5070275;28;20036;-60
2022/03/04 03:29:20;;;;;;;0.10;0.10;;;;;;;;;;5052789;28;20392;-60
2022/03/04 03:31:46;;;;;;;0.10;0.10;;;;;;;;;;5056764;28;20113;-60
2022/03/04 03:34:11;;;;;;;0.10;0.10;;;;;;;;;;5073839;28;20047;-60
2022/03/04 03:36:37;;;;;;;0.20;0.20;;;;;;;;;;5073700;28;20843;-60
2022/03/04 03:39:03;;;;;;;0.10;0.10;;;;;;;;;;5073948;28;20027;-61
2022/03/04 03:41:28;;;;;;;0.10;0.10;;;;;;;;;;5056269;28;20120;-60
2022/03/04 03:43:54;;;;;;;0.10;0.10;;;;;;;;;;5073598;28;20040;-60
2022/03/04 03:46:19;;;;;;;0.10;0.10;;;;;;;;;;5073732;28;20036;-62
2022/03/04 03:48:45;;;;;;;0.10;0.10;;;;;;;;;;5074391;28;20047;-60
2022/03/04 03:51:11;;;;;;;0.10;0.10;;;;;;;;;;5073221;28;20446;-61
2022/03/04 03:53:36;;;;;;;0.10;0.10;;;;;;;;;;5073630;28;20051;-61
2022/03/04 03:56:02;;;;;;;2.05;1.95;;;;;;;;;;5056266;28;20032;-60
2022/03/04 03:58:27;;;;;;;0.10;0.10;;;;;;;;;;5073379;28;20040;-61
2022/03/04 04:00:53;;;;;;;0.10;0.10;;;;;;;;;;5073744;28;20443;-60
2022/03/04 04:03:18;;;;;;;0.70;0.70;;;;;;;;;;5045472;28;20450;-62
2022/03/04 04:05:44;;;;;;;0.10;0.10;;;;;;;;;;5090260;28;20040;-66
2022/03/04 04:08:09;;;;;;;1.65;1.63;;;;;;;;;;5089880;28;20036;-59
2022/03/04 04:10:35;;;;;;;0.10;0.10;;;;;;;;;;5090561;28;20063;-60
2022/03/04 04:13:00;;;;;;;0.10;0.10;;;;;;;;;;5089986;28;20024;-60
2022/03/04 04:15:26;;;;;;;0.10;0.10;;;;;;;;;;5089663;28;20036;-61
2022/03/04 04:17:51;;;;;;;0.10;0.10;;;;;;;;;;5090782;28;20119;-61
2022/03/04 04:20:17;;;;;;;0.10;0.10;;;;;;;;;;5090480;28;20046;-60
2022/03/04 04:22:42;;;;;;;0.20;0.20;;;;;;;;;;5072085;28;20032;-60
2022/03/04 04:25:08;;;;;;;0.10;0.10;;;;;;;;;;5090486;28;20403;-66
2022/03/04 04:27:34;;;;;;;0.10;0.10;;;;;;;;;;5071429;28;20040;-66
2022/03/04 04:29:59;;;;;;;0.10;0.10;;;;;;;;;;5090378;28;20036;-61
2022/03/04 04:32:25;;;;;;;0.10;0.10;;;;;;;;;;5054659;28;20024;-65
2022/03/04 04:34:50;;;;;;;1.55;1.48;;;;;;;;;;5090283;28;20032;-61
2022/03/04 04:37:16;;;;;;;0.10;0.10;;;;;;;;;;5090144;28;20414;-60
2022/03/04 04:39:41;;;;;;;0.10;0.10;;;;;;;;;;5089346;28;20043;-61
2022/03/04 04:42:07;;;;;;;0.10;0.10;;;;;;;;;;5054372;28;20122;-62
2022/03/04 04:44:32;;;;;;;0.10;0.10;;;;;;;;;;5090225;28;20138;-61
2022/03/04 04:46:58;;;;;;;0.40;0.40;;;;;;;;;;5089571;28;20051;-60
2022/03/04 04:49:25;;;;;;;0.70;0.70;;;;;;;;;;5071660;28;20039;-61
2022/03/04 04:51:51;;;;;;;0.10;0.10;;;;;;;;;;5055154;28;20380;-60
2022/03/04 04:54:16;;;;;;;0.15;0.15;;;;;;;;;;5071647;28;20027;-59
2022/03/04 04:56:42;;;;;;;0.10;0.10;;;;;;;;;;5089975;28;20476;-60
2022/03/04 04:59:07;;;;;;;0.10;0.10;;;;;;;;;;5088877;28;20042;-62
2022/03/04 05:01:33;;;;;;;0.10;0.10;;;;;;;;;;5088151;28;20127;-61
2022/03/04 05:03:58;;;;;;;0.10;0.10;;;;;;;;;;5070498;28;20479;-60
2022/03/04 05:06:24;;;;;;;0.10;0.10;;;;;;;;;;5088341;28;20039;-60
2022/03/04 05:08:50;;;;;;;0.13;0.13;;;;;;;;;;5088095;28;20062;-62
2022/03/04 05:11:15;;;;;;;0.10;0.10;;;;;;;;;;5070596;28;20389;-63
2022/03/04 05:13:41;;;;;;;0.10;0.10;;;;;;;;;;5088116;28;20090;-61
2022/03/04 05:16:06;;;;;;;0.10;0.10;;;;;;;;;;5087655;28;20040;-65
2022/03/04 05:18:32;;;;;;;0.20;0.20;;;;;;;;;;5054026;28;20024;-59
2022/03/04 05:20:58;;;;;;;0.10;0.10;;;;;;;;;;5089571;28;20518;-59
2022/03/04 05:26:07;;;;;;;0.13;0.13;;;;;;;;;;5089173;28;20040;-60
2022/03/04 05:28:33;;;;;;;0.10;0.10;;;;;;;;;;5089300;28;20017;-60
2022/03/04 05:30:58;;;;;;;0.10;0.10;;;;;;;;;;5054470;28;20040;-60
2022/03/04 05:33:24;;;;;;;0.10;0.10;;;;;;;;;;5071173;28;20040;-61
2022/03/04 05:35:50;;;;;;;0.10;0.10;;;;;;;;;;5068645;28;20040;-62
2022/03/04 05:38:15;;;;;;;0.10;0.10;;;;;;;;;;5087378;28;20093;-61
2022/03/04 05:40:41;;;;;;;0.10;0.10;;;;;;;;;;5087596;28;20042;-62
2022/03/04 05:43:07;;;;;;;0.10;0.10;;;;;;;;;;5087124;28;20032;-62
2022/03/04 05:45:36;;;;;;;0.10;0.10;;;;;;;;;;5087483;28;20119;-61
2022/03/04 05:48:01;;;;;;;0.10;0.10;;;;;;;;;;5087424;28;20036;-59
2022/03/04 05:50:27;;;;;;;0.10;0.10;;;;;;;;;;5070142;28;20089;-60
2022/03/04 05:52:52;;;;;;;0.10;0.10;;;;;;;;;;5087496;28;20032;-67
2022/03/04 05:55:18;;;;;;;0.10;0.10;;;;;;;;;;5088585;28;20483;-67
2022/03/04 05:57:43;;;;;;;0.10;0.10;;;;;;;;;;5087879;28;20028;-61
2022/03/04 06:00:09;;;;;;;0.50;0.47;;;;;;;;;;5068996;28;20036;-62
2022/03/04 06:02:35;;;;;;;0.10;0.10;;;;;;;;;;5087902;28;20084;-62
2022/03/04 06:05:00;;;;;;;0.10;0.10;;;;;;;;;;5088183;28;20078;-60
2022/03/04 06:07:26;;;;;;;0.00;0.00;;;;;;;;;;5087828;28;20070;-61
2022/03/04 06:09:51;;;;;;;0.30;0.30;;;;;;;;;;5087294;28;20081;-61
2022/03/04 06:12:17;;;;;;;0.10;0.10;;;;;;;;;;5051829;28;20122;-60
2022/03/04 06:14:42;;;;;;;0.10;0.10;;;;;;;;;;5052571;28;20495;-65
2022/03/04 06:17:08;;;;;;;0.10;0.10;;;;;;;;;;5068954;28;20040;-62
2022/03/04 06:19:33;;;;;;;0.10;0.10;;;;;;;;;;5069061;28;20503;-61
2022/03/04 06:21:59;;;;;;;0.10;0.10;;;;;;;;;;5087501;28;20032;-62
2022/03/04 06:24:24;;;;;;;0.10;0.10;;;;;;;;;;5087241;28;20028;-61
2022/03/04 06:26:50;;;;;;;0.10;0.10;;;;;;;;;;5087360;28;20494;-61
2022/03/04 06:29:15;;;;;;;0.10;0.10;;;;;;;;;;5087679;28;20036;-62
2022/03/04 06:31:41;;;;;;;0.10;0.10;;;;;;;;;;5087672;28;20032;-63
2022/03/04 06:34:06;;;;;;;0.10;0.10;;;;;;;;;;5086749;28;20833;-61
2022/03/04 06:36:32;;;;;;;0.10;0.10;;;;;;;;;;5086496;28;20032;-63
2022/03/04 06:38:57;;;;;;;0.10;0.10;;;;;;;;;;5086512;28;20043;-63
2022/03/04 06:41:23;;;;;;;0.10;0.10;;;;;;;;;;5086534;28;20038;-62
2022/03/04 06:43:48;;;;;;;0.10;0.10;;;;;;;;;;5067798;28;20426;-64
2022/03/04 06:46:14;;;;;;;0.10;0.10;;;;;;;;;;5060924;28;20038;-66
2022/03/04 06:48:40;;;;;;;0.35;0.35;;;;;;;;;;5104164;28;20169;-66
2022/03/04 06:51:05;;;;;;;0.13;0.13;;;;;;;;;;5106830;28;20043;-66
2022/03/04 06:53:32;;;;;;;0.10;0.10;;;;;;;;;;5106445;28;20034;-65
2022/03/04 06:55:58;;;;;;;0.10;0.10;;;;;;;;;;5105237;28;20039;-65
2022/03/04 06:58:23;;;;;;;0.28;0.28;;;;;;;;;;5104855;28;20178;-66
2022/03/04 07:00:48;;;;;;;0.10;0.10;;;;;;;;;;5105141;28;20032;-66
2022/03/04 07:03:15;;;;;;;0.10;0.10;;;;;;;;;;5087971;28;20039;-65
2022/03/04 07:05:40;;;;;;;0.10;0.10;;;;;;;;;;5109109;28;20108;-65
2022/03/04 07:08:11;;;;;;;0.10;0.10;;;;;;;;;;5106166;28;20032;-66
2022/03/04 07:10:37;;;;;;;0.10;0.10;;;;;;;;;;5109143;28;20110;-65
2022/03/04 07:13:03;;;;;;;0.10;0.10;;;;;;;;;;5085521;28;20046;-65
2022/03/04 07:15:28;;;;;;;0.10;0.10;;;;;;;;;;5105186;28;20039;-65
2022/03/04 07:17:54;;;;;;;0.10;0.10;;;;;;;;;;5107069;28;20047;-67
2022/03/04 07:20:19;;;;;;;0.10;0.10;;;;;;;;;;5089623;28;20028;-66
2022/03/04 07:22:45;;;;;;;0.10;0.10;;;;;;;;;;5096394;28;20089;-65
2022/03/04 07:25:12;;;;;;;0.10;0.10;;;;;;;;;;5111622;28;20035;-66
2022/03/04 07:27:37;;;;;;;0.10;0.10;;;;;;;;;;5110203;28;20038;-66
2022/03/04 07:30:05;;;;;;;0.10;0.10;;;;;;;;;;5091090;28;20040;-66
2022/03/04 07:32:32;;;;;;;0.10;0.10;;;;;;;;;;5108387;28;20118;-65
2022/03/04 07:34:57;;;;;;;0.10;0.10;;;;;;;;;;5109088;28;20100;-66
2022/03/04 07:37:23;;;;;;;0.10;0.10;;;;;;;;;;5109714;28;20019;-66
2022/03/04 07:39:48;;;;;;;0.10;0.10;;;;;;;;;;5109528;28;20043;-66
2022/03/04 07:42:14;;;;;;;0.10;0.10;;;;;;;;;;5107730;28;20089;-65
2022/03/04 07:44:41;;;;;;;0.10;0.10;;;;;;;;;;5088169;28;20070;-66
2022/03/04 07:47:06;;;;;;;2.22;1.92;;;;;;;;;;5102045;28;20055;-64
2022/03/04 07:49:32;;;;;;;0.10;0.10;;;;;;;;;;5098166;28;20046;-65
2022/03/04 07:51:57;;;;;;;0.10;0.10;;;;;;;;;;5098159;28;20570;-66
2022/03/04 07:54:23;;;;;;;0.20;0.20;;;;;;;;;;5070213;28;20545;-65
2022/03/04 07:56:48;;;;;;;0.10;0.10;;;;;;;;;;5107607;28;20244;-66
2022/03/04 07:59:14;;;;;;;0.15;0.15;;;;;;;;;;5108499;28;20490;-65
2022/03/04 08:01:39;;;;;;;0.20;0.20;;;;;;;;;;5098117;28;20028;-66
2022/03/04 08:04:05;;;;;;;0.10;0.10;;;;;;;;;;5087313;28;20043;-65
2022/03/04 08:06:31;;;;;;;0.17;0.17;;;;;;;;;;5070851;28;20036;-65
2022/03/04 08:08:56;;;;;;;0.13;0.13;;;;;;;;;;5088421;28;20028;-66
2022/03/04 08:11:22;;;;;;;0.20;0.20;;;;;;;;;;5088023;28;20115;-65
2022/03/04 08:13:47;;;;;;;0.20;0.20;;;;;;;;;;5087429;28;20042;-66
2022/03/04 08:16:13;;;;;;;0.20;0.20;;;;;;;;;;5087000;28;20028;-64
2022/03/04 08:18:39;;;;;;;0.20;0.20;;;;;;;;;;5088289;28;20372;-66
2022/03/04 08:21:05;;;;;;;0.20;0.20;;;;;;;;;;5088634;28;20103;-65
2022/03/04 08:23:30;;;;;;;6.43;2.28;;;;;;;;;;5087944;28;20165;-65
2022/03/04 08:25:57;;;;;;;0.30;0.30;;;;;;;;;;5088519;28;20493;-65
2022/03/04 08:28:23;;;;;;;0.20;0.20;;;;;;;;;;5071914;28;20467;-66
2022/03/04 08:30:48;;;;;;;0.30;0.30;;;;;;;;;;5072283;28;20036;-65
2022/03/04 08:33:13;;;;;;;0.22;0.22;;;;;;;;;;5089161;28;20075;-65
2022/03/04 08:35:39;;;;;;;1.85;1.00;;;;;;;;;;5090105;28;20028;-65
2022/03/04 08:38:05;;;;;;;0.20;0.20;;;;;;;;;;5090218;28;20115;-65
2022/03/04 08:40:30;;;;;;;0.20;0.20;;;;;;;;;;5090205;28;20446;-65
2022/03/04 08:42:56;;;;;;;0.15;0.15;;;;;;;;;;5089069;28;20470;-66
2022/03/04 08:45:21;;;;;;;0.20;0.20;;;;;;;;;;5089623;28;20472;-65
2022/03/04 08:47:47;;;;;;;0.20;0.20;;;;;;;;;;5090460;28;20039;-66
2022/03/04 08:50:13;;;;;;;0.25;0.25;;;;;;;;;;5089991;28;20379;-66
2022/03/04 08:52:39;;;;;;;0.20;0.20;;;;;;;;;;5090128;28;20040;-67
2022/03/04 08:55:07;;;;;;;0.10;0.10;;;;;;;;;;5090062;28;20107;-67
2022/03/04 08:57:33;;;;;;;0.10;0.10;;;;;;;;;;5089558;28;20081;-67
2022/03/04 08:59:59;;;;;;;0.10;0.10;;;;;;;;;;5088792;28;20873;-67
2022/03/04 09:02:24;;;;;;;0.10;0.10;;;;;;;;;;5089393;28;20131;-67
2022/03/04 09:04:50;;;;;;;0.17;0.17;;;;;;;;;;5089933;28;20028;-66
2022/03/04 09:07:16;;;;;;;0.20;0.20;;;;;;;;;;5090273;28;20024;-66
2022/03/04 09:09:43;;;;;;;0.25;0.25;;;;;;;;;;5089497;28;20482;-65
2022/03/04 09:12:09;;;;;;;0.30;0.30;;;;;;;;;;5069911;28;20425;-67
2022/03/04 09:14:34;;;;;;;0.35;0.35;;;;;;;;;;5089612;28;20111;-67
2022/03/04 09:16:59;;;;;;;0.20;0.20;;;;;;;;;;5071723;28;20476;-67
2022/03/04 09:19:25;;;;;;;0.28;0.28;;;;;;;;;;5089828;28;20498;-67
2022/03/04 09:21:50;;;;;;;0.30;0.30;;;;;;;;;;5088842;28;20024;-67
2022/03/04 09:24:16;;;;;;;0.22;0.22;;;;;;;;;;5088443;28;20105;-66
2022/03/04 09:26:41;;;;;;;0.40;0.40;;;;;;;;;;5089253;28;20059;-66
2022/03/04 09:29:07;;;;;;;0.25;0.25;;;;;;;;;;5088673;28;20483;-67
2022/03/04 09:31:33;;;;;;;0.20;0.20;;;;;;;;;;5071355;28;20047;-66
2022/03/04 09:33:58;;;;;;;0.20;0.20;;;;;;;;;;5088392;28;20149;-67
2022/03/04 09:36:24;;;;;;;0.30;0.30;;;;;;;;;;5088229;28;20111;-67
2022/03/04 09:38:49;;;;;;;0.28;0.28;;;;;;;;;;5071226;28;20060;-67
2022/03/04 09:41:15;;;;;;;0.20;0.20;;;;;;;;;;5089103;28;20104;-67
2022/03/04 09:43:41;;;;;;;0.30;0.30;;;;;;;;;;5089352;28;20036;-67
2022/03/04 09:46:07;;;;;;;0.22;0.22;;;;;;;;;;5088523;28;20032;-68
2022/03/04 09:48:39;;;;;;;0.30;0.30;;;;;;;;;;5087983;28;20047;-67
2022/03/04 09:51:05;;;;;;;0.20;0.20;;;;;;;;;;5089280;28;20040;-67
2022/03/04 09:53:31;;;;;;;0.20;0.20;;;;;;;;;;5070887;28;20099;-67
2022/03/04 09:55:56;;;;;;;0.20;0.20;;;;;;;;;;5091223;28;20031;-67
2022/03/04 09:58:22;;;;;;;0.20;0.20;;;;;;;;;;5090767;28;20067;-67
2022/03/04 10:00:47;;;;;;;0.30;0.30;;;;;;;;;;5109476;28;20031;-67
2022/03/04 10:03:38;;;;;;;0.40;0.40;;;;;;;;;;5109121;28;20039;-67
2022/03/04 10:06:05;;;;;;;0.30;0.30;;;;;;;;;;5108049;28;20070;-67
2022/03/04 10:08:36;;;;;;;0.30;0.30;;;;;;;;;;5096703;28;20028;-68
2022/03/04 10:11:02;;;;;;;0.38;0.38;;;;;;;;;;5090096;28;20036;-67
2022/03/04 10:13:47;;;;;;;0.30;0.30;;;;;;;;;;5105744;28;20036;-67
2022/03/04 10:16:31;;;;;;;0.30;0.30;;;;;;;;;;5088559;28;20472;-66
2022/03/04 10:19:04;;;;;;;0.30;0.30;;;;;;;;;;5069280;28;20580;-66
2022/03/04 10:21:48;;;;;;;1.45;1.15;;;;;;;;;;5068723;28;20122;-66
2022/03/04 10:24:14;;;;;;;0.50;0.50;;;;;;;;;;5087205;28;20044;-66
2022/03/04 10:26:40;;;;;;;0.30;0.30;;;;;;;;;;5092373;28;20502;-66
2022/03/04 10:29:20;;;;;;;0.55;0.55;;;;;;;;;;5095886;28;20130;-69
2022/03/04 10:32:04;;;;;;;0.52;0.38;;;;;;;;;;5070852;28;20031;-66
2022/03/04 10:34:30;;;;;;;0.30;0.30;;;;;;;;;;5106662;28;20023;-67
2022/03/04 10:36:55;;;;;;;0.30;0.30;;;;;;;;;;5101393;28;20043;-68
2022/03/04 10:39:22;;;;;;;0.50;0.50;;;;;;;;;;5090658;28;20368;-68
2022/03/04 10:41:51;;;;;;;4.28;1.58;;;;;;;;;;5093808;28;20039;-67
2022/03/04 10:44:26;;;;;;;1.48;0.93;;;;;;;;;;5089932;28;20118;-68
2022/03/04 10:46:55;;;;;;;0.45;0.30;;;;;;;;;;5092039;28;20482;-67
2022/03/04 10:49:25;;;;;;;0.20;0.20;;;;;;;;;;5103970;28;20487;-66
2022/03/04 10:52:04;;;;;;;0.35;0.35;;;;;;;;;;5096762;28;20202;-66
2022/03/04 10:54:31;;;;;;;0.20;0.20;;;;;;;;;;5071431;28;20064;-67
2022/03/04 10:56:57;;;;;;;0.10;0.10;;;;;;;;;;5071404;28;20422;-67
2022/03/04 10:59:23;;;;;;;0.20;0.20;;;;;;;;;;5068897;28;20154;-68
2022/03/04 11:01:50;;;;;;;0.10;0.10;;;;;;;;;;5069349;28;20523;-67
2022/03/04 11:04:16;;;;;;;0.15;0.15;;;;;;;;;;5069013;28;20109;-68
2022/03/04 11:06:45;;;;;;;0.20;0.20;;;;;;;;;;5069423;28;20491;-68
2022/03/04 11:09:12;;;;;;;0.10;0.10;;;;;;;;;;5069243;28;20032;-68
2022/03/04 11:11:39;;;;;;;0.20;0.20;;;;;;;;;;5068784;28;20055;-67
2022/03/04 11:14:04;;;;;;;2.05;1.65;;;;;;;;;;5080088;28;20038;-68
2022/03/04 11:16:31;;;;;;;2.67;1.77;;;;;;;;;;5091651;28;20040;-66
2022/03/04 11:18:56;;;;;;;0.70;0.60;;;;;;;;;;5070915;28;20035;-67
2022/03/04 11:21:22;;;;;;;2.00;1.10;;;;;;;;;;5090436;28;20035;-67
2022/03/04 11:23:47;;;;;;;4.43;2.28;;;;;;;;;;5080429;28;20149;-67
2022/03/04 11:26:16;;;;;;;1.17;0.88;;;;;;;;;;5105329;28;20028;-67
2022/03/04 11:28:42;;;;;;;6.18;2.90;;;;;;;;;;5109423;28;20023;-67
2022/03/04 11:31:28;;;;;;;3.08;2.10;;;;;;;;;;5109511;28;20495;-66
2022/03/04 11:33:55;;;;;;;0.63;0.52;;;;;;;;;;5108039;28;20044;-67
2022/03/04 11:36:22;;;;;;;0.40;0.40;;;;;;;;;;5107004;28;20045;-68
2022/03/04 11:38:48;;;;;;;4.10;2.88;;;;;;;;;;5106963;28;20375;-67
2022/03/04 11:41:23;;;;;;;2.72;2.10;;;;;;;;;;5107604;28;20085;-68
2022/03/04 11:43:52;;;;;;;1.73;1.17;;;;;;;;;;5107552;28;20043;-67
2022/03/04 11:46:19;;;;;;;0.98;0.85;;;;;;;;;;5106913;28;20031;-68
2022/03/04 11:48:45;;;;;;;0.68;0.57;;;;;;;;;;5106986;28;20573;-66
2022/03/04 11:51:17;;;;;;;0.65;0.50;;;;;;;;;;5107536;28;20039;-68
2022/03/04 11:53:42;;;;;;;3.42;1.70;;;;;;;;;;5108154;28;20032;-67
2022/03/04 11:56:11;;;;;;;0.20;0.20;;;;;;;;;;5107756;28;20026;-66
2022/03/04 11:58:54;;;;;;;0.20;0.20;;;;;;;;;;5109350;28;20031;-66
2022/03/04 12:01:27;;;;;;;0.85;0.55;;;;;;;;;;5092501;28;20423;-67
2022/03/04 12:04:11;;;;;;;1.55;1.17;;;;;;;;;;5110474;28;20036;-66
2022/03/04 12:06:37;;;;;;;0.22;0.22;;;;;;;;;;5110128;28;20072;-66
2022/03/04 12:09:22;;;;;;;1.17;1.00;;;;;;;;;;5091102;28;20486;-66
2022/03/04 12:12:06;;;;;;;0.40;0.40;;;;;;;;;;5109552;28;20035;-66
2022/03/04 12:14:33;;;;;;;0.40;0.40;;;;;;;;;;5110544;28;20023;-65
2022/03/04 12:16:59;;;;;;;2.63;1.83;;;;;;;;;;5110419;28;20023;-64
2022/03/04 12:19:28;;;;;;;0.82;0.82;;;;;;;;;;5092050;28;20368;-65
2022/03/04 12:21:54;;;;;;;;;;;;;;;;;;5111100;28;20046;-66
2022/03/04 12:24:27;;;;;;;0.30;0.30;;;;;;;;;;5109130;28;19920;-66
2022/03/04 12:26:52;;;;;;;1.08;1.00;;;;;;;;;;5110232;28;20087;-64
2022/03/04 12:29:18;;;;;;;0.90;0.63;;;;;;;;;;5109917;28;20037;-66
2022/03/04 12:31:44;;;;;;;1.15;1.02;;;;;;;;;;5109271;28;20107;-66
2022/03/04 12:34:17;;;;;;;1.35;1.17;;;;;;;;;;5109148;28;20036;-65
2022/03/04 12:36:43;;;;;;;0.70;0.70;;;;;;;;;;5109260;28;20057;-64
2022/03/04 12:39:09;;;;;;;0.43;0.43;;;;;;;;;;5109360;28;20031;-66
2022/03/04 12:41:36;;;;;;;0.57;0.50;;;;;;;;;;5109494;28;20047;-67
2022/03/04 12:44:03;;;;;;;3.03;1.55;;;;;;;;;;5109097;28;20071;-64
2022/03/04 12:46:30;;;;;;;0.40;0.40;;;;;;;;;;5109221;28;20096;-65
2022/03/04 12:48:56;;;;;;;0.60;0.60;;;;;;;;;;5109492;28;20039;-63
2022/03/04 12:51:23;;;;;;;2.60;0.77;;;;;;;;;;5109404;28;20023;-66
2022/03/04 12:53:49;;;;;;;0.40;0.40;;;;;;;;;;5108981;28;20690;-65
2022/03/04 12:56:17;;;;;;;1.65;1.55;;;;;;;;;;5105696;28;20031;-65
2022/03/04 12:58:46;;;;;;;0.40;0.40;;;;;;;;;;5108214;28;20072;-65
2022/03/04 13:01:11;;;;;;;;;;;;;;;;;;5090463;28;20042;-65
2022/03/04 13:03:37;;;;;;;0.30;0.30;;;;;;;;;;5108977;28;19915;-64
2022/03/04 13:06:03;;;;;;;0.40;0.40;;;;;;;;;;5070099;28;20321;-65
2022/03/04 13:08:30;;;;;;;1.48;0.85;;;;;;;;;;5067741;28;20037;-65
2022/03/04 13:11:09;;;;;;;0.52;0.52;;;;;;;;;;5068353;28;20039;-66
2022/03/04 13:13:45;;;;;;;1.25;0.90;;;;;;;;;;5083587;28;20182;-66
2022/03/04 13:16:10;;;;;;;1.45;1.15;;;;;;;;;;5076820;28;20032;-64
2022/03/04 13:18:36;;;;;;;0.40;0.40;;;;;;;;;;5089438;28;20024;-64
2022/03/04 13:21:03;;;;;;;0.40;0.40;;;;;;;;;;5093688;28;20068;-65
2022/03/04 13:23:28;;;;;;;2.28;0.98;;;;;;;;;;5095999;28;20036;-63
2022/03/04 13:25:55;;;;;;;2.05;1.25;;;;;;;;;;5087799;28;20059;-66
2022/03/04 13:28:21;;;;;;;0.47;0.32;;;;;;;;;;5087579;28;20035;-63
2022/03/04 13:30:50;;;;;;;0.30;0.30;;;;;;;;;;5088524;28;20032;-64
2022/03/04 13:33:15;;;;;;;1.90;1.00;;;;;;;;;;5087910;28;20375;-64
2022/03/04 13:35:50;;;;;;;2.22;1.13;;;;;;;;;;5068879;28;20100;-65
2022/03/04 13:38:22;;;;;;;1.50;1.40;;;;;;;;;;5086783;28;20032;-63
2022/03/04 13:40:49;;;;;;;0.30;0.30;;;;;;;;;;5087519;28;20028;-62
2022/03/04 13:43:25;;;;;;;0.55;0.50;;;;;;;;;;5086351;28;20036;-65
2022/03/04 13:45:54;;;;;;;1.42;0.77;;;;;;;;;;5086649;28;20063;-66
2022/03/04 13:48:20;;;;;;;2.77;1.63;;;;;;;;;;5085906;28;20031;-66
2022/03/04 13:50:45;;;;;;;0.98;0.60;;;;;;;;;;5086722;28;20032;-64
2022/03/04 13:53:19;;;;;;;0.20;0.20;;;;;;;;;;5087889;28;20034;-62
2022/03/04 13:55:48;;;;;;;2.95;1.75;;;;;;;;;;5086786;28;20122;-62
2022/03/04 13:58:23;;;;;;;0.45;0.40;;;;;;;;;;5087450;28;20050;-62
2022/03/04 14:00:56;;;;;;;1.98;0.95;;;;;;;;;;5085916;28;20040;-64
2022/03/04 14:03:26;;;;;;;0.85;0.63;;;;;;;;;;5085861;28;20036;-63
2022/03/04 14:05:57;;;;;;;1.48;1.23;;;;;;;;;;5086805;28;20028;-66
2022/03/04 14:08:23;;;;;;;1.10;0.82;;;;;;;;;;5090361;28;20032;-65
2022/03/04 14:10:49;;;;;;;2.17;1.55;;;;;;;;;;5091695;28;20114;-63
2022/03/04 14:13:16;;;;;;;1.25;1.02;;;;;;;;;;5088776;28;20044;-65
2022/03/04 14:15:43;;;;;;;0.13;0.13;;;;;;;;;;5086683;28;20035;-63
2022/03/04 14:18:10;;;;;;;2.10;1.85;;;;;;;;;;5085673;28;20475;-62
2022/03/04 14:20:37;;;;;;;0.43;0.40;;;;;;;;;;5086007;28;20119;-62
2022/03/04 14:23:06;;;;;;;0.20;0.20;;;;;;;;;;5068556;28;20910;-63
2022/03/04 14:25:33;;;;;;;3.72;1.88;;;;;;;;;;5066405;28;20431;-67
2022/03/04 14:27:58;;;;;;;2.72;1.00;;;;;;;;;;5065192;28;20036;-63
2022/03/04 14:30:25;;;;;;;1.83;1.33;;;;;;;;;;5065620;28;20035;-64
2022/03/04 14:32:52;;;;;;;1.80;1.40;;;;;;;;;;5066302;28;20032;-64
2022/03/04 14:35:19;;;;;;;1.60;1.50;;;;;;;;;;5047948;28;20031;-64
2022/03/04 14:37:46;;;;;;;2.10;1.10;;;;;;;;;;5066000;28;20476;-65
2022/03/04 14:40:16;;;;;;;2.17;1.33;;;;;;;;;;5065749;28;20051;-63
2022/03/04 14:42:42;;;;;;;0.20;0.20;;;;;;;;;;5066412;28;20083;-64
2022/03/04 14:45:08;;;;;;;0.20;0.20;;;;;;;;;;5068198;28;20064;-66